Terminal Aerodrome Forecast
Issued by NWS Sioux Falls, SD

Home | Current Version | Previous Version | Graphics & Text | Print | Product List | Glossary On
Versions: 1 2 3 4 5 6 7 8 9 10 11 12 13 14 15 16 17
803
FTUS43 KFSD 241842 AAA
TAFFSD
TAF AMD
KFSD 241842Z 2419/2518 17015G22KT P6SM SCT025 SCT045 BKN140
     FM242000 17014G20KT P6SM SHRA OVC040
      TEMPO 2420/2422 2SM +TSRA OVC015CB
     FM250000 18011KT P6SM BKN060
     FM250400 20008KT P6SM SCT080
     FM250800 26006KT P6SM FEW250
     FM251500 28014G22KT P6SM BKN015=

USA.gov is the U.S. government's official web portal to all federal, state and local government web resources and services.